sensor_id;sensor_type;location;lat;lon;timestamp;P1;durP1;ratioP1;P2;durP2;ratioP2
35506;SDS011;36461;52.018;21.036;2022-12-05T00:04:01;15.20;;;11.30;;
35506;SDS011;36461;52.018;21.036;2022-12-05T00:06:31;14.83;;;10.78;;
35506;SDS011;36461;52.018;21.036;2022-12-05T00:08:59;15.85;;;11.38;;
35506;SDS011;36461;52.018;21.036;2022-12-05T00:11:29;15.58;;;11.60;;
35506;SDS011;36461;52.018;21.036;2022-12-05T00:14:00;17.75;;;11.50;;
35506;SDS011;36461;52.018;21.036;2022-12-05T00:16:29;16.15;;;10.95;;
35506;SDS011;36461;52.018;21.036;2022-12-05T00:18:58;15.08;;;10.88;;
35506;SDS011;36461;52.018;21.036;2022-12-05T00:21:26;13.90;;;9.70;;
35506;SDS011;36461;52.018;21.036;2022-12-05T00:23:56;19.02;;;12.10;;
35506;SDS011;36461;52.018;21.036;2022-12-05T00:26:24;16.27;;;11.80;;
35506;SDS011;36461;52.018;21.036;2022-12-05T00:28:53;15.28;;;11.08;;
35506;SDS011;36461;52.018;21.036;2022-12-05T00:31:22;14.78;;;11.03;;
35506;SDS011;36461;52.018;21.036;2022-12-05T00:33:50;16.02;;;11.70;;
35506;SDS011;36461;52.018;21.036;2022-12-05T00:36:25;16.67;;;11.65;;
35506;SDS011;36461;52.018;21.036;2022-12-05T00:38:54;16.45;;;11.63;;
35506;SDS011;36461;52.018;21.036;2022-12-05T00:41:24;15.72;;;11.15;;
35506;SDS011;36461;52.018;21.036;2022-12-05T00:43:53;14.65;;;10.55;;
35506;SDS011;36461;52.018;21.036;2022-12-05T00:46:21;15.43;;;10.72;;
35506;SDS011;36461;52.018;21.036;2022-12-05T00:48:53;15.25;;;11.20;;
35506;SDS011;36461;52.018;21.036;2022-12-05T00:51:26;15.63;;;10.85;;
35506;SDS011;36461;52.018;21.036;2022-12-05T00:54:00;17.80;;;11.70;;
35506;SDS011;36461;52.018;21.036;2022-12-05T00:56:30;14.00;;;11.08;;
35506;SDS011;36461;52.018;21.036;2022-12-05T00:58:58;13.72;;;10.05;;
35506;SDS011;36461;52.018;21.036;2022-12-05T01:01:34;14.85;;;11.00;;
35506;SDS011;36461;52.018;21.036;2022-12-05T01:04:08;16.57;;;11.05;;
35506;SDS011;36461;52.018;21.036;2022-12-05T01:06:39;16.30;;;11.03;;
35506;SDS011;36461;52.018;21.036;2022-12-05T01:09:09;13.13;;;9.88;;
35506;SDS011;36461;52.018;21.036;2022-12-05T01:11:38;13.38;;;9.68;;
35506;SDS011;36461;52.018;21.036;2022-12-05T01:19:02;14.20;;;11.00;;
35506;SDS011;36461;52.018;21.036;2022-12-05T01:21:32;17.37;;;11.88;;
35506;SDS011;36461;52.018;21.036;2022-12-05T01:23:59;14.98;;;11.15;;
35506;SDS011;36461;52.018;21.036;2022-12-05T01:26:26;12.93;;;10.00;;
35506;SDS011;36461;52.018;21.036;2022-12-05T01:28:52;14.50;;;10.60;;
35506;SDS011;36461;52.018;21.036;2022-12-05T01:31:22;13.45;;;9.85;;
35506;SDS011;36461;52.018;21.036;2022-12-05T01:33:54;13.08;;;9.93;;
35506;SDS011;36461;52.018;21.036;2022-12-05T01:36:22;14.28;;;10.05;;
35506;SDS011;36461;52.018;21.036;2022-12-05T01:38:50;14.73;;;10.45;;
35506;SDS011;36461;52.018;21.036;2022-12-05T01:41:19;14.80;;;9.95;;
35506;SDS011;36461;52.018;21.036;2022-12-05T01:43:57;11.43;;;8.78;;
35506;SDS011;36461;52.018;21.036;2022-12-05T01:46:44;15.32;;;10.53;;
35506;SDS011;36461;52.018;21.036;2022-12-05T01:52:06;12.35;;;8.60;;
35506;SDS011;36461;52.018;21.036;2022-12-05T01:54:36;13.08;;;9.88;;
35506;SDS011;36461;52.018;21.036;2022-12-05T01:57:08;13.20;;;9.65;;
35506;SDS011;36461;52.018;21.036;2022-12-05T01:59:36;11.93;;;8.98;;
35506;SDS011;36461;52.018;21.036;2022-12-05T02:02:06;13.75;;;9.75;;
35506;SDS011;36461;52.018;21.036;2022-12-05T02:04:34;15.23;;;9.95;;
35506;SDS011;36461;52.018;21.036;2022-12-05T02:07:06;15.90;;;10.25;;
35506;SDS011;36461;52.018;21.036;2022-12-05T02:09:33;13.08;;;9.80;;
35506;SDS011;36461;52.018;21.036;2022-12-05T02:12:01;15.18;;;10.82;;
35506;SDS011;36461;52.018;21.036;2022-12-05T02:31:19;14.00;;;9.68;;
35506;SDS011;36461;52.018;21.036;2022-12-05T02:37:11;13.80;;;9.63;;
35506;SDS011;36461;52.018;21.036;2022-12-05T02:39:44;13.88;;;10.50;;
35506;SDS011;36461;52.018;21.036;2022-12-05T02:42:36;15.53;;;10.05;;
35506;SDS011;36461;52.018;21.036;2022-12-05T02:45:07;12.93;;;9.23;;
35506;SDS011;36461;52.018;21.036;2022-12-05T02:47:39;13.72;;;9.88;;
35506;SDS011;36461;52.018;21.036;2022-12-05T02:50:13;12.63;;;8.95;;
35506;SDS011;36461;52.018;21.036;2022-12-05T02:52:44;14.28;;;9.50;;
35506;SDS011;36461;52.018;21.036;2022-12-05T02:55:14;12.23;;;8.73;;
35506;SDS011;36461;52.018;21.036;2022-12-05T02:57:45;13.13;;;9.20;;
35506;SDS011;36461;52.018;21.036;2022-12-05T03:00:16;12.25;;;9.90;;
35506;SDS011;36461;52.018;21.036;2022-12-05T03:02:44;12.20;;;9.00;;
35506;SDS011;36461;52.018;21.036;2022-12-05T03:05:18;12.53;;;8.13;;
35506;SDS011;36461;52.018;21.036;2022-12-05T03:08:10;11.33;;;8.70;;
35506;SDS011;36461;52.018;21.036;2022-12-05T03:10:41;12.05;;;8.75;;
35506;SDS011;36461;52.018;21.036;2022-12-05T03:13:11;11.90;;;9.23;;
35506;SDS011;36461;52.018;21.036;2022-12-05T03:15:44;13.62;;;9.48;;
35506;SDS011;36461;52.018;21.036;2022-12-05T03:20:48;11.93;;;8.78;;
35506;SDS011;36461;52.018;21.036;2022-12-05T03:23:38;13.90;;;9.63;;
35506;SDS011;36461;52.018;21.036;2022-12-05T03:26:17;11.50;;;8.80;;
35506;SDS011;36461;52.018;21.036;2022-12-05T03:34:47;12.60;;;9.60;;
35506;SDS011;36461;52.018;21.036;2022-12-05T03:51:42;12.13;;;9.10;;
35506;SDS011;36461;52.018;21.036;2022-12-05T03:56:57;12.85;;;9.60;;
35506;SDS011;36461;52.018;21.036;2022-12-05T04:05:08;11.85;;;8.30;;
35506;SDS011;36461;52.018;21.036;2022-12-05T04:07:38;11.20;;;8.20;;
35506;SDS011;36461;52.018;21.036;2022-12-05T04:10:14;10.72;;;7.83;;
35506;SDS011;36461;52.018;21.036;2022-12-05T04:12:41;10.58;;;7.85;;
35506;SDS011;36461;52.018;21.036;2022-12-05T04:15:16;11.40;;;8.58;;
35506;SDS011;36461;52.018;21.036;2022-12-05T04:17:49;10.20;;;8.20;;
35506;SDS011;36461;52.018;21.036;2022-12-05T04:20:31;9.28;;;7.15;;
35506;SDS011;36461;52.018;21.036;2022-12-05T04:23:20;10.30;;;7.40;;
35506;SDS011;36461;52.018;21.036;2022-12-05T04:36:21;11.50;;;8.18;;
35506;SDS011;36461;52.018;21.036;2022-12-05T04:38:54;11.85;;;8.40;;
35506;SDS011;36461;52.018;21.036;2022-12-05T04:41:27;10.80;;;8.70;;
35506;SDS011;36461;52.018;21.036;2022-12-05T04:44:06;12.07;;;8.38;;
35506;SDS011;36461;52.018;21.036;2022-12-05T04:46:37;11.95;;;9.13;;
35506;SDS011;36461;52.018;21.036;2022-12-05T04:49:08;11.53;;;8.93;;
35506;SDS011;36461;52.018;21.036;2022-12-05T04:51:38;11.73;;;8.60;;
35506;SDS011;36461;52.018;21.036;2022-12-05T04:54:16;11.25;;;8.68;;
35506;SDS011;36461;52.018;21.036;2022-12-05T04:56:42;10.70;;;8.60;;
35506;SDS011;36461;52.018;21.036;2022-12-05T04:59:11;12.75;;;8.90;;
35506;SDS011;36461;52.018;21.036;2022-12-05T05:01:39;12.47;;;9.45;;
35506;SDS011;36461;52.018;21.036;2022-12-05T05:04:16;10.98;;;8.68;;
35506;SDS011;36461;52.018;21.036;2022-12-05T05:06:54;11.83;;;9.15;;
35506;SDS011;36461;52.018;21.036;2022-12-05T05:09:21;10.70;;;8.55;;
35506;SDS011;36461;52.018;21.036;2022-12-05T05:11:47;11.35;;;8.60;;
35506;SDS011;36461;52.018;21.036;2022-12-05T05:14:14;11.70;;;8.80;;
35506;SDS011;36461;52.018;21.036;2022-12-05T05:16:41;12.58;;;9.25;;
35506;SDS011;36461;52.018;21.036;2022-12-05T05:19:09;12.90;;;8.88;;
35506;SDS011;36461;52.018;21.036;2022-12-05T05:21:38;12.00;;;9.13;;
35506;SDS011;36461;52.018;21.036;2022-12-05T05:24:08;12.95;;;8.75;;
35506;SDS011;36461;52.018;21.036;2022-12-05T05:26:40;12.43;;;9.05;;
35506;SDS011;36461;52.018;21.036;2022-12-05T05:29:09;12.05;;;8.85;;
35506;SDS011;36461;52.018;21.036;2022-12-05T05:31:37;11.70;;;8.98;;
35506;SDS011;36461;52.018;21.036;2022-12-05T05:34:04;10.03;;;8.20;;
35506;SDS011;36461;52.018;21.036;2022-12-05T05:36:32;11.18;;;8.00;;
35506;SDS011;36461;52.018;21.036;2022-12-05T05:38:59;10.75;;;8.50;;
35506;SDS011;36461;52.018;21.036;2022-12-05T05:41:32;11.20;;;8.20;;
35506;SDS011;36461;52.018;21.036;2022-12-05T05:44:02;10.55;;;7.97;;
35506;SDS011;36461;52.018;21.036;2022-12-05T05:46:31;11.50;;;7.70;;
35506;SDS011;36461;52.018;21.036;2022-12-05T05:49:00;9.70;;;7.70;;
35506;SDS011;36461;52.018;21.036;2022-12-05T05:51:27;12.43;;;8.60;;
35506;SDS011;36461;52.018;21.036;2022-12-05T05:53:55;11.25;;;8.23;;
35506;SDS011;36461;52.018;21.036;2022-12-05T05:56:25;12.25;;;8.40;;
35506;SDS011;36461;52.018;21.036;2022-12-05T05:58:56;12.00;;;8.65;;
35506;SDS011;36461;52.018;21.036;2022-12-05T06:01:26;11.70;;;8.28;;
35506;SDS011;36461;52.018;21.036;2022-12-05T06:03:53;11.95;;;8.63;;
35506;SDS011;36461;52.018;21.036;2022-12-05T06:06:24;11.03;;;8.43;;
35506;SDS011;36461;52.018;21.036;2022-12-05T06:08:51;11.22;;;8.40;;
35506;SDS011;36461;52.018;21.036;2022-12-05T06:11:20;11.43;;;8.58;;
35506;SDS011;36461;52.018;21.036;2022-12-05T06:13:50;11.18;;;8.70;;
35506;SDS011;36461;52.018;21.036;2022-12-05T06:16:17;11.12;;;8.25;;
35506;SDS011;36461;52.018;21.036;2022-12-05T06:18:45;11.20;;;8.45;;
35506;SDS011;36461;52.018;21.036;2022-12-05T06:21:12;12.60;;;9.53;;
35506;SDS011;36461;52.018;21.036;2022-12-05T06:23:39;12.50;;;9.33;;
35506;SDS011;36461;52.018;21.036;2022-12-05T06:26:09;12.47;;;9.30;;
35506;SDS011;36461;52.018;21.036;2022-12-05T06:28:41;13.45;;;8.95;;
35506;SDS011;36461;52.018;21.036;2022-12-05T06:31:09;12.78;;;9.23;;
35506;SDS011;36461;52.018;21.036;2022-12-05T06:33:39;12.60;;;8.65;;
35506;SDS011;36461;52.018;21.036;2022-12-05T06:36:08;12.80;;;8.78;;
35506;SDS011;36461;52.018;21.036;2022-12-05T06:38:38;11.57;;;8.98;;
35506;SDS011;36461;52.018;21.036;2022-12-05T06:41:05;11.78;;;8.95;;
35506;SDS011;36461;52.018;21.036;2022-12-05T06:43:34;12.47;;;8.05;;
35506;SDS011;36461;52.018;21.036;2022-12-05T06:46:04;12.43;;;8.20;;
35506;SDS011;36461;52.018;21.036;2022-12-05T06:48:33;11.65;;;8.28;;
35506;SDS011;36461;52.018;21.036;2022-12-05T06:51:00;13.80;;;9.10;;
35506;SDS011;36461;52.018;21.036;2022-12-05T06:53:27;11.55;;;8.30;;
35506;SDS011;36461;52.018;21.036;2022-12-05T06:55:58;11.60;;;8.20;;
35506;SDS011;36461;52.018;21.036;2022-12-05T06:58:28;11.88;;;8.50;;
35506;SDS011;36461;52.018;21.036;2022-12-05T07:00:56;11.68;;;7.87;;
35506;SDS011;36461;52.018;21.036;2022-12-05T07:03:42;12.23;;;8.43;;
35506;SDS011;36461;52.018;21.036;2022-12-05T07:08:36;13.45;;;9.18;;
35506;SDS011;36461;52.018;21.036;2022-12-05T07:11:03;12.80;;;8.70;;
35506;SDS011;36461;52.018;21.036;2022-12-05T07:13:31;14.35;;;10.60;;
35506;SDS011;36461;52.018;21.036;2022-12-05T07:15:57;14.07;;;9.58;;
35506;SDS011;36461;52.018;21.036;2022-12-05T07:20:55;15.05;;;8.98;;
35506;SDS011;36461;52.018;21.036;2022-12-05T07:23:24;13.22;;;9.40;;
35506;SDS011;36461;52.018;21.036;2022-12-05T07:28:22;13.80;;;8.95;;
35506;SDS011;36461;52.018;21.036;2022-12-05T07:31:03;12.30;;;8.75;;
35506;SDS011;36461;52.018;21.036;2022-12-05T07:33:32;12.10;;;8.23;;
35506;SDS011;36461;52.018;21.036;2022-12-05T07:36:00;13.40;;;9.25;;
35506;SDS011;36461;52.018;21.036;2022-12-05T07:38:30;15.88;;;9.95;;
35506;SDS011;36461;52.018;21.036;2022-12-05T07:40:57;15.70;;;9.98;;
35506;SDS011;36461;52.018;21.036;2022-12-05T07:43:24;14.03;;;9.35;;
35506;SDS011;36461;52.018;21.036;2022-12-05T07:45:50;17.27;;;10.20;;
35506;SDS011;36461;52.018;21.036;2022-12-05T07:48:17;18.80;;;11.00;;
35506;SDS011;36461;52.018;21.036;2022-12-05T07:50:44;15.48;;;10.05;;
35506;SDS011;36461;52.018;21.036;2022-12-05T07:53:10;15.00;;;10.13;;
35506;SDS011;36461;52.018;21.036;2022-12-05T07:55:37;17.00;;;11.18;;
35506;SDS011;36461;52.018;21.036;2022-12-05T07:58:04;14.78;;;10.13;;
35506;SDS011;36461;52.018;21.036;2022-12-05T08:00:30;14.65;;;9.83;;
35506;SDS011;36461;52.018;21.036;2022-12-05T08:02:57;14.07;;;9.83;;
35506;SDS011;36461;52.018;21.036;2022-12-05T08:05:24;15.05;;;10.25;;
35506;SDS011;36461;52.018;21.036;2022-12-05T08:07:50;15.40;;;11.10;;
35506;SDS011;36461;52.018;21.036;2022-12-05T08:10:17;16.00;;;10.53;;
35506;SDS011;36461;52.018;21.036;2022-12-05T08:12:43;14.40;;;10.03;;
35506;SDS011;36461;52.018;21.036;2022-12-05T08:15:10;15.13;;;10.58;;
35506;SDS011;36461;52.018;21.036;2022-12-05T08:17:37;14.85;;;10.38;;
35506;SDS011;36461;52.018;21.036;2022-12-05T08:20:04;17.10;;;11.03;;
35506;SDS011;36461;52.018;21.036;2022-12-05T08:22:32;16.20;;;11.12;;
35506;SDS011;36461;52.018;21.036;2022-12-05T08:24:59;15.53;;;10.70;;
35506;SDS011;36461;52.018;21.036;2022-12-05T08:27:26;16.67;;;10.60;;
35506;SDS011;36461;52.018;21.036;2022-12-05T08:29:53;15.78;;;11.75;;
35506;SDS011;36461;52.018;21.036;2022-12-05T08:32:20;16.12;;;10.75;;
35506;SDS011;36461;52.018;21.036;2022-12-05T08:34:46;15.75;;;11.40;;
35506;SDS011;36461;52.018;21.036;2022-12-05T08:37:13;17.67;;;11.93;;
35506;SDS011;36461;52.018;21.036;2022-12-05T08:42:07;19.10;;;13.05;;
35506;SDS011;36461;52.018;21.036;2022-12-05T08:44:33;18.23;;;11.97;;
35506;SDS011;36461;52.018;21.036;2022-12-05T08:47:00;16.80;;;12.10;;
35506;SDS011;36461;52.018;21.036;2022-12-05T08:49:28;19.73;;;12.78;;
35506;SDS011;36461;52.018;21.036;2022-12-05T08:51:55;17.90;;;12.15;;
35506;SDS011;36461;52.018;21.036;2022-12-05T08:54:21;17.35;;;12.33;;
35506;SDS011;36461;52.018;21.036;2022-12-05T08:56:51;20.50;;;13.13;;
35506;SDS011;36461;52.018;21.036;2022-12-05T08:59:18;21.50;;;13.05;;
35506;SDS011;36461;52.018;21.036;2022-12-05T09:04:11;19.12;;;12.47;;
35506;SDS011;36461;52.018;21.036;2022-12-05T09:06:38;19.07;;;12.70;;
35506;SDS011;36461;52.018;21.036;2022-12-05T09:09:07;18.17;;;12.30;;
35506;SDS011;36461;52.018;21.036;2022-12-05T09:11:37;21.40;;;12.98;;
35506;SDS011;36461;52.018;21.036;2022-12-05T09:14:08;19.75;;;13.28;;
35506;SDS011;36461;52.018;21.036;2022-12-05T09:16:35;19.05;;;12.50;;
35506;SDS011;36461;52.018;21.036;2022-12-05T09:19:15;21.42;;;12.90;;
35506;SDS011;36461;52.018;21.036;2022-12-05T09:21:40;22.93;;;13.10;;
35506;SDS011;36461;52.018;21.036;2022-12-05T09:24:09;22.10;;;13.22;;
35506;SDS011;36461;52.018;21.036;2022-12-05T09:26:37;22.32;;;13.55;;
35506;SDS011;36461;52.018;21.036;2022-12-05T09:29:05;24.43;;;14.13;;
35506;SDS011;36461;52.018;21.036;2022-12-05T09:31:32;22.93;;;13.80;;
35506;SDS011;36461;52.018;21.036;2022-12-05T09:34:01;20.35;;;13.48;;
35506;SDS011;36461;52.018;21.036;2022-12-05T09:39:00;21.60;;;13.00;;
35506;SDS011;36461;52.018;21.036;2022-12-05T09:44:38;21.00;;;13.48;;
35506;SDS011;36461;52.018;21.036;2022-12-05T09:50:05;22.13;;;13.22;;
35506;SDS011;36461;52.018;21.036;2022-12-05T09:55:45;21.23;;;13.65;;
35506;SDS011;36461;52.018;21.036;2022-12-05T09:58:37;22.15;;;13.62;;
35506;SDS011;36461;52.018;21.036;2022-12-05T10:01:18;20.15;;;13.20;;
35506;SDS011;36461;52.018;21.036;2022-12-05T10:16:04;24.80;;;15.43;;
35506;SDS011;36461;52.018;21.036;2022-12-05T10:18:51;26.05;;;15.23;;
35506;SDS011;36461;52.018;21.036;2022-12-05T10:21:23;26.15;;;15.78;;
35506;SDS011;36461;52.018;21.036;2022-12-05T10:24:03;24.65;;;14.00;;
35506;SDS011;36461;52.018;21.036;2022-12-05T10:26:43;24.90;;;15.05;;
35506;SDS011;36461;52.018;21.036;2022-12-05T10:31:52;24.05;;;14.43;;
35506;SDS011;36461;52.018;21.036;2022-12-05T10:34:31;24.82;;;14.90;;
35506;SDS011;36461;52.018;21.036;2022-12-05T10:39:46;22.22;;;13.62;;
35506;SDS011;36461;52.018;21.036;2022-12-05T10:42:20;24.10;;;14.10;;
35506;SDS011;36461;52.018;21.036;2022-12-05T10:44:53;24.35;;;15.38;;
35506;SDS011;36461;52.018;21.036;2022-12-05T10:47:22;24.10;;;15.18;;
35506;SDS011;36461;52.018;21.036;2022-12-05T10:54:43;24.18;;;15.10;;
35506;SDS011;36461;52.018;21.036;2022-12-05T10:57:27;24.55;;;15.48;;
35506;SDS011;36461;52.018;21.036;2022-12-05T11:00:08;24.00;;;14.43;;
35506;SDS011;36461;52.018;21.036;2022-12-05T11:02:41;24.18;;;15.48;;
35506;SDS011;36461;52.018;21.036;2022-12-05T11:05:09;25.60;;;15.40;;
35506;SDS011;36461;52.018;21.036;2022-12-05T11:10:19;25.17;;;15.18;;
35506;SDS011;36461;52.018;21.036;2022-12-05T11:12:50;26.85;;;15.05;;
35506;SDS011;36461;52.018;21.036;2022-12-05T11:17:51;25.35;;;15.78;;
35506;SDS011;36461;52.018;21.036;2022-12-05T11:22:52;25.17;;;15.50;;
35506;SDS011;36461;52.018;21.036;2022-12-05T11:33:31;27.25;;;16.57;;
35506;SDS011;36461;52.018;21.036;2022-12-05T11:36:02;26.57;;;16.25;;
35506;SDS011;36461;52.018;21.036;2022-12-05T11:38:33;26.23;;;15.78;;
35506;SDS011;36461;52.018;21.036;2022-12-05T11:52:56;27.98;;;16.55;;
35506;SDS011;36461;52.018;21.036;2022-12-05T11:55:49;26.87;;;15.88;;
35506;SDS011;36461;52.018;21.036;2022-12-05T12:12:45;32.30;;;18.37;;
35506;SDS011;36461;52.018;21.036;2022-12-05T12:15:29;31.40;;;18.12;;
35506;SDS011;36461;52.018;21.036;2022-12-05T12:22:03;28.85;;;17.25;;
35506;SDS011;36461;52.018;21.036;2022-12-05T12:30:27;29.15;;;17.00;;
35506;SDS011;36461;52.018;21.036;2022-12-05T12:36:24;28.52;;;17.20;;
35506;SDS011;36461;52.018;21.036;2022-12-05T12:47:19;30.68;;;17.67;;
35506;SDS011;36461;52.018;21.036;2022-12-05T12:50:04;33.63;;;17.62;;
35506;SDS011;36461;52.018;21.036;2022-12-05T12:58:47;29.77;;;17.45;;
35506;SDS011;36461;52.018;21.036;2022-12-05T13:01:42;32.45;;;18.07;;
35506;SDS011;36461;52.018;21.036;2022-12-05T13:04:30;30.97;;;18.55;;
35506;SDS011;36461;52.018;21.036;2022-12-05T13:07:12;29.87;;;17.98;;
35506;SDS011;36461;52.018;21.036;2022-12-05T13:09:42;32.35;;;19.17;;
35506;SDS011;36461;52.018;21.036;2022-12-05T13:12:19;32.88;;;18.50;;
35506;SDS011;36461;52.018;21.036;2022-12-05T13:14:50;28.60;;;17.55;;
35506;SDS011;36461;52.018;21.036;2022-12-05T13:17:21;33.28;;;19.57;;
35506;SDS011;36461;52.018;21.036;2022-12-05T13:19:50;33.38;;;17.87;;
35506;SDS011;36461;52.018;21.036;2022-12-05T13:22:23;30.82;;;18.52;;
35506;SDS011;36461;52.018;21.036;2022-12-05T13:24:49;36.03;;;18.85;;
35506;SDS011;36461;52.018;21.036;2022-12-05T13:27:17;30.40;;;18.15;;
35506;SDS011;36461;52.018;21.036;2022-12-05T13:29:53;36.33;;;17.85;;
35506;SDS011;36461;52.018;21.036;2022-12-05T13:32:37;34.67;;;18.50;;
35506;SDS011;36461;52.018;21.036;2022-12-05T13:38:04;28.75;;;17.50;;
35506;SDS011;36461;52.018;21.036;2022-12-05T13:40:53;31.42;;;18.17;;
35506;SDS011;36461;52.018;21.036;2022-12-05T13:43:43;30.32;;;18.60;;
35506;SDS011;36461;52.018;21.036;2022-12-05T13:49:03;29.67;;;16.87;;
35506;SDS011;36461;52.018;21.036;2022-12-05T13:51:49;29.32;;;17.50;;
35506;SDS011;36461;52.018;21.036;2022-12-05T13:54:23;27.45;;;17.02;;
35506;SDS011;36461;52.018;21.036;2022-12-05T13:56:54;34.05;;;19.23;;
35506;SDS011;36461;52.018;21.036;2022-12-05T14:07:55;28.42;;;17.70;;
35506;SDS011;36461;52.018;21.036;2022-12-05T14:10:21;27.37;;;17.15;;
35506;SDS011;36461;52.018;21.036;2022-12-05T14:12:55;29.35;;;17.48;;
35506;SDS011;36461;52.018;21.036;2022-12-05T14:15:26;30.57;;;18.35;;
35506;SDS011;36461;52.018;21.036;2022-12-05T14:18:15;30.90;;;18.02;;
35506;SDS011;36461;52.018;21.036;2022-12-05T14:21:16;29.12;;;17.05;;
35506;SDS011;36461;52.018;21.036;2022-12-05T14:27:00;29.07;;;18.40;;
35506;SDS011;36461;52.018;21.036;2022-12-05T14:37:32;30.88;;;17.60;;
35506;SDS011;36461;52.018;21.036;2022-12-05T14:40:25;33.00;;;18.57;;
35506;SDS011;36461;52.018;21.036;2022-12-05T14:42:59;31.42;;;17.77;;
35506;SDS011;36461;52.018;21.036;2022-12-05T14:45:34;27.98;;;17.73;;
35506;SDS011;36461;52.018;21.036;2022-12-05T14:50:45;30.62;;;17.92;;
35506;SDS011;36461;52.018;21.036;2022-12-05T14:56:08;29.48;;;17.05;;
35506;SDS011;36461;52.018;21.036;2022-12-05T15:01:28;29.52;;;17.42;;
35506;SDS011;36461;52.018;21.036;2022-12-05T15:07:21;25.15;;;16.65;;
35506;SDS011;36461;52.018;21.036;2022-12-05T15:12:53;30.05;;;18.70;;
35506;SDS011;36461;52.018;21.036;2022-12-05T15:15:40;26.17;;;16.55;;
35506;SDS011;36461;52.018;21.036;2022-12-05T15:18:23;30.95;;;18.25;;
35506;SDS011;36461;52.018;21.036;2022-12-05T15:20:58;27.30;;;17.40;;
35506;SDS011;36461;52.018;21.036;2022-12-05T15:23:59;29.12;;;17.95;;
35506;SDS011;36461;52.018;21.036;2022-12-05T15:26:36;30.35;;;18.10;;
35506;SDS011;36461;52.018;21.036;2022-12-05T15:31:52;31.37;;;19.80;;
35506;SDS011;36461;52.018;21.036;2022-12-05T15:34:34;32.55;;;19.37;;
35506;SDS011;36461;52.018;21.036;2022-12-05T15:45:14;32.83;;;16.77;;
35506;SDS011;36461;52.018;21.036;2022-12-05T15:47:44;29.10;;;17.80;;
35506;SDS011;36461;52.018;21.036;2022-12-05T15:50:24;30.45;;;17.62;;
35506;SDS011;36461;52.018;21.036;2022-12-05T15:53:16;32.20;;;19.10;;
35506;SDS011;36461;52.018;21.036;2022-12-05T15:56:06;31.12;;;17.42;;
35506;SDS011;36461;52.018;21.036;2022-12-05T15:58:57;31.30;;;19.60;;
35506;SDS011;36461;52.018;21.036;2022-12-05T16:01:47;30.50;;;18.30;;
35506;SDS011;36461;52.018;21.036;2022-12-05T16:04:23;35.08;;;19.77;;
35506;SDS011;36461;52.018;21.036;2022-12-05T16:06:56;33.78;;;19.92;;
35506;SDS011;36461;52.018;21.036;2022-12-05T16:09:30;33.67;;;19.95;;
35506;SDS011;36461;52.018;21.036;2022-12-05T16:14:34;39.98;;;23.12;;
35506;SDS011;36461;52.018;21.036;2022-12-05T16:17:04;37.20;;;22.00;;
35506;SDS011;36461;52.018;21.036;2022-12-05T16:19:36;38.98;;;22.37;;
35506;SDS011;36461;52.018;21.036;2022-12-05T16:24:55;39.23;;;21.10;;
35506;SDS011;36461;52.018;21.036;2022-12-05T16:27:36;35.60;;;19.57;;
35506;SDS011;36461;52.018;21.036;2022-12-05T16:30:17;37.38;;;19.73;;
35506;SDS011;36461;52.018;21.036;2022-12-05T16:32:48;34.38;;;19.75;;
35506;SDS011;36461;52.018;21.036;2022-12-05T16:35:36;35.13;;;19.48;;
35506;SDS011;36461;52.018;21.036;2022-12-05T16:38:13;36.42;;;20.35;;
35506;SDS011;36461;52.018;21.036;2022-12-05T16:48:44;30.27;;;18.90;;
35506;SDS011;36461;52.018;21.036;2022-12-05T16:51:40;29.07;;;17.95;;
35506;SDS011;36461;52.018;21.036;2022-12-05T16:54:22;25.37;;;18.17;;
35506;SDS011;36461;52.018;21.036;2022-12-05T16:56:49;29.63;;;19.85;;
35506;SDS011;36461;52.018;21.036;2022-12-05T16:59:21;26.20;;;17.95;;
35506;SDS011;36461;52.018;21.036;2022-12-05T17:01:52;27.67;;;19.05;;
35506;SDS011;36461;52.018;21.036;2022-12-05T17:04:19;26.40;;;18.12;;
35506;SDS011;36461;52.018;21.036;2022-12-05T17:06:47;28.17;;;18.57;;
35506;SDS011;36461;52.018;21.036;2022-12-05T17:14:11;24.40;;;16.77;;
35506;SDS011;36461;52.018;21.036;2022-12-05T17:16:40;24.95;;;17.52;;
35506;SDS011;36461;52.018;21.036;2022-12-05T17:19:08;27.00;;;18.37;;
35506;SDS011;36461;52.018;21.036;2022-12-05T17:21:36;28.10;;;19.10;;
35506;SDS011;36461;52.018;21.036;2022-12-05T17:24:09;27.15;;;17.82;;
35506;SDS011;36461;52.018;21.036;2022-12-05T17:26:41;26.12;;;18.35;;
35506;SDS011;36461;52.018;21.036;2022-12-05T17:29:08;24.65;;;17.80;;
35506;SDS011;36461;52.018;21.036;2022-12-05T17:31:36;28.75;;;19.20;;
35506;SDS011;36461;52.018;21.036;2022-12-05T17:34:09;26.80;;;18.42;;
35506;SDS011;36461;52.018;21.036;2022-12-05T17:36:41;30.30;;;19.40;;
35506;SDS011;36461;52.018;21.036;2022-12-05T17:39:09;27.73;;;19.15;;
35506;SDS011;36461;52.018;21.036;2022-12-05T17:41:36;25.68;;;18.85;;
35506;SDS011;36461;52.018;21.036;2022-12-05T17:44:04;26.65;;;19.05;;
35506;SDS011;36461;52.018;21.036;2022-12-05T17:46:31;27.90;;;20.10;;
35506;SDS011;36461;52.018;21.036;2022-12-05T17:48:58;25.48;;;18.60;;
35506;SDS011;36461;52.018;21.036;2022-12-05T17:51:26;26.65;;;19.40;;
35506;SDS011;36461;52.018;21.036;2022-12-05T17:53:53;28.02;;;18.80;;
35506;SDS011;36461;52.018;21.036;2022-12-05T17:56:20;27.05;;;19.35;;
35506;SDS011;36461;52.018;21.036;2022-12-05T17:58:48;28.92;;;19.40;;
35506;SDS011;36461;52.018;21.036;2022-12-05T18:01:16;29.20;;;20.45;;
35506;SDS011;36461;52.018;21.036;2022-12-05T18:03:44;26.55;;;18.62;;
35506;SDS011;36461;52.018;21.036;2022-12-05T18:06:13;28.70;;;19.95;;
35506;SDS011;36461;52.018;21.036;2022-12-05T18:08:40;28.30;;;19.77;;
35506;SDS011;36461;52.018;21.036;2022-12-05T18:11:08;27.00;;;18.57;;
35506;SDS011;36461;52.018;21.036;2022-12-05T18:13:37;27.15;;;19.00;;
35506;SDS011;36461;52.018;21.036;2022-12-05T18:16:03;27.13;;;19.52;;
35506;SDS011;36461;52.018;21.036;2022-12-05T18:18:31;28.05;;;19.30;;
35506;SDS011;36461;52.018;21.036;2022-12-05T18:23:37;23.87;;;17.90;;
35506;SDS011;36461;52.018;21.036;2022-12-05T18:26:05;26.62;;;18.62;;
35506;SDS011;36461;52.018;21.036;2022-12-05T18:28:36;29.92;;;19.98;;
35506;SDS011;36461;52.018;21.036;2022-12-05T18:31:08;30.72;;;19.57;;
35506;SDS011;36461;52.018;21.036;2022-12-05T18:33:39;29.50;;;21.00;;
35506;SDS011;36461;52.018;21.036;2022-12-05T18:36:08;29.87;;;20.00;;
35506;SDS011;36461;52.018;21.036;2022-12-05T18:38:40;30.30;;;21.05;;
35506;SDS011;36461;52.018;21.036;2022-12-05T18:41:08;32.88;;;20.80;;
35506;SDS011;36461;52.018;21.036;2022-12-05T18:43:35;29.95;;;21.35;;
35506;SDS011;36461;52.018;21.036;2022-12-05T18:46:02;30.97;;;20.20;;
35506;SDS011;36461;52.018;21.036;2022-12-05T18:48:30;28.32;;;19.52;;
35506;SDS011;36461;52.018;21.036;2022-12-05T18:51:15;26.80;;;19.23;;
35506;SDS011;36461;52.018;21.036;2022-12-05T18:53:48;28.15;;;20.27;;
35506;SDS011;36461;52.018;21.036;2022-12-05T18:56:22;27.42;;;19.32;;
35506;SDS011;36461;52.018;21.036;2022-12-05T18:58:52;29.37;;;20.48;;
35506;SDS011;36461;52.018;21.036;2022-12-05T19:01:22;28.10;;;19.50;;